sensor_id;sensor_type;location;lat;lon;timestamp;P1;durP1;ratioP1;P2;durP2;ratioP2
38591;SDS011;24356;48.460;11.450;2022-12-24T00:01:33;2.30;;;1.20;;
38591;SDS011;24356;48.460;11.450;2022-12-24T00:03:58;3.20;;;1.50;;
38591;SDS011;24356;48.460;11.450;2022-12-24T00:06:24;1.52;;;1.10;;
38591;SDS011;24356;48.460;11.450;2022-12-24T00:08:50;2.85;;;1.30;;
38591;SDS011;24356;48.460;11.450;2022-12-24T00:11:16;1.73;;;1.20;;
38591;SDS011;24356;48.460;11.450;2022-12-24T00:13:42;1.58;;;1.10;;
38591;SDS011;24356;48.460;11.450;2022-12-24T00:16:08;3.30;;;1.40;;
38591;SDS011;24356;48.460;11.450;2022-12-24T00:18:34;3.78;;;1.30;;
38591;SDS011;24356;48.460;11.450;2022-12-24T00:20:59;2.47;;;1.08;;
38591;SDS011;24356;48.460;11.450;2022-12-24T00:23:28;3.08;;;1.08;;
38591;SDS011;24356;48.460;11.450;2022-12-24T00:25:53;1.77;;;0.98;;
38591;SDS011;24356;48.460;11.450;2022-12-24T00:28:19;1.45;;;1.00;;
38591;SDS011;24356;48.460;11.450;2022-12-24T00:30:45;2.25;;;0.90;;
38591;SDS011;24356;48.460;11.450;2022-12-24T00:33:11;1.92;;;0.90;;
38591;SDS011;24356;48.460;11.450;2022-12-24T00:35:37;1.48;;;0.98;;
38591;SDS011;24356;48.460;11.450;2022-12-24T00:38:03;1.10;;;0.90;;
38591;SDS011;24356;48.460;11.450;2022-12-24T00:40:30;1.77;;;0.90;;
38591;SDS011;24356;48.460;11.450;2022-12-24T00:42:56;2.85;;;0.85;;
38591;SDS011;24356;48.460;11.450;2022-12-24T00:45:22;1.75;;;0.98;;
38591;SDS011;24356;48.460;11.450;2022-12-24T00:47:47;3.15;;;1.00;;
38591;SDS011;24356;48.460;11.450;2022-12-24T00:50:13;3.67;;;0.80;;
38591;SDS011;24356;48.460;11.450;2022-12-24T00:52:39;2.63;;;1.00;;
38591;SDS011;24356;48.460;11.450;2022-12-24T00:55:04;3.08;;;1.15;;
38591;SDS011;24356;48.460;11.450;2022-12-24T00:57:30;3.03;;;1.00;;
38591;SDS011;24356;48.460;11.450;2022-12-24T00:59:56;1.95;;;0.88;;
38591;SDS011;24356;48.460;11.450;2022-12-24T01:02:21;3.40;;;1.05;;
38591;SDS011;24356;48.460;11.450;2022-12-24T01:04:47;2.97;;;0.90;;
38591;SDS011;24356;48.460;11.450;2022-12-24T01:07:33;2.40;;;0.80;;
38591;SDS011;24356;48.460;11.450;2022-12-24T01:09:59;3.40;;;1.10;;
38591;SDS011;24356;48.460;11.450;2022-12-24T01:12:25;2.08;;;1.00;;
38591;SDS011;24356;48.460;11.450;2022-12-24T01:14:50;2.58;;;0.93;;
38591;SDS011;24356;48.460;11.450;2022-12-24T01:17:16;2.10;;;1.00;;
38591;SDS011;24356;48.460;11.450;2022-12-24T01:19:42;5.85;;;1.30;;
38591;SDS011;24356;48.460;11.450;2022-12-24T01:22:07;6.60;;;1.23;;
38591;SDS011;24356;48.460;11.450;2022-12-24T01:24:33;3.08;;;0.93;;
38591;SDS011;24356;48.460;11.450;2022-12-24T01:26:59;3.97;;;1.10;;
38591;SDS011;24356;48.460;11.450;2022-12-24T01:29:24;4.03;;;1.02;;
38591;SDS011;24356;48.460;11.450;2022-12-24T01:31:50;5.30;;;1.20;;
38591;SDS011;24356;48.460;11.450;2022-12-24T01:34:16;3.55;;;0.98;;
38591;SDS011;24356;48.460;11.450;2022-12-24T01:36:41;5.00;;;1.27;;
38591;SDS011;24356;48.460;11.450;2022-12-24T01:39:07;4.10;;;1.00;;
38591;SDS011;24356;48.460;11.450;2022-12-24T01:41:33;1.73;;;1.10;;
38591;SDS011;24356;48.460;11.450;2022-12-24T01:49:33;1.98;;;1.15;;
38591;SDS011;24356;48.460;11.450;2022-12-24T01:52:02;2.50;;;1.15;;
38591;SDS011;24356;48.460;11.450;2022-12-24T01:54:41;2.53;;;1.30;;
38591;SDS011;24356;48.460;11.450;2022-12-24T01:57:29;3.92;;;1.50;;
38591;SDS011;24356;48.460;11.450;2022-12-24T01:59:59;3.10;;;1.30;;
38591;SDS011;24356;48.460;11.450;2022-12-24T02:02:29;3.40;;;1.30;;
38591;SDS011;24356;48.460;11.450;2022-12-24T02:07:38;4.97;;;1.75;;
38591;SDS011;24356;48.460;11.450;2022-12-24T02:10:06;4.47;;;1.50;;
38591;SDS011;24356;48.460;11.450;2022-12-24T02:12:33;2.47;;;1.65;;
38591;SDS011;24356;48.460;11.450;2022-12-24T02:15:01;4.82;;;1.90;;
38591;SDS011;24356;48.460;11.450;2022-12-24T02:17:30;7.15;;;1.80;;
38591;SDS011;24356;48.460;11.450;2022-12-24T02:23:15;6.85;;;1.98;;
38591;SDS011;24356;48.460;11.450;2022-12-24T02:26:12;3.72;;;1.60;;
38591;SDS011;24356;48.460;11.450;2022-12-24T02:31:49;2.85;;;1.60;;
38591;SDS011;24356;48.460;11.450;2022-12-24T02:34:46;7.25;;;1.35;;
38591;SDS011;24356;48.460;11.450;2022-12-24T02:37:30;5.88;;;1.83;;
38591;SDS011;24356;48.460;11.450;2022-12-24T02:40:10;5.95;;;1.67;;
38591;SDS011;24356;48.460;11.450;2022-12-24T02:42:41;4.35;;;1.60;;
38591;SDS011;24356;48.460;11.450;2022-12-24T02:45:08;6.15;;;1.90;;
38591;SDS011;24356;48.460;11.450;2022-12-24T02:47:37;2.78;;;1.33;;
38591;SDS011;24356;48.460;11.450;2022-12-24T02:50:05;5.90;;;1.63;;
38591;SDS011;24356;48.460;11.450;2022-12-24T02:55:06;3.20;;;1.33;;
38591;SDS011;24356;48.460;11.450;2022-12-24T03:04:05;3.60;;;1.63;;
38591;SDS011;24356;48.460;11.450;2022-12-24T03:06:42;4.40;;;1.48;;
38591;SDS011;24356;48.460;11.450;2022-12-24T03:09:24;5.72;;;1.60;;
38591;SDS011;24356;48.460;11.450;2022-12-24T03:11:59;7.40;;;1.70;;
38591;SDS011;24356;48.460;11.450;2022-12-24T03:14:29;8.55;;;1.83;;
38591;SDS011;24356;48.460;11.450;2022-12-24T03:16:58;6.13;;;1.70;;
38591;SDS011;24356;48.460;11.450;2022-12-24T03:19:26;2.50;;;1.60;;
38591;SDS011;24356;48.460;11.450;2022-12-24T03:21:53;4.45;;;1.70;;
38591;SDS011;24356;48.460;11.450;2022-12-24T03:24:22;5.93;;;1.95;;
38591;SDS011;24356;48.460;11.450;2022-12-24T03:26:48;6.45;;;1.70;;
38591;SDS011;24356;48.460;11.450;2022-12-24T03:29:14;5.30;;;1.73;;
38591;SDS011;24356;48.460;11.450;2022-12-24T03:34:08;5.63;;;1.80;;
38591;SDS011;24356;48.460;11.450;2022-12-24T03:36:34;4.35;;;1.70;;
38591;SDS011;24356;48.460;11.450;2022-12-24T03:39:00;6.28;;;1.80;;
38591;SDS011;24356;48.460;11.450;2022-12-24T03:41:25;4.63;;;1.90;;
38591;SDS011;24356;48.460;11.450;2022-12-24T03:43:51;5.25;;;1.67;;
38591;SDS011;24356;48.460;11.450;2022-12-24T03:46:16;5.68;;;2.35;;
38591;SDS011;24356;48.460;11.450;2022-12-24T03:48:42;8.45;;;2.03;;
38591;SDS011;24356;48.460;11.450;2022-12-24T03:51:15;4.13;;;1.80;;
38591;SDS011;24356;48.460;11.450;2022-12-24T03:53:42;5.93;;;1.90;;
38591;SDS011;24356;48.460;11.450;2022-12-24T03:56:08;7.20;;;1.75;;
38591;SDS011;24356;48.460;11.450;2022-12-24T03:58:34;8.60;;;1.75;;
38591;SDS011;24356;48.460;11.450;2022-12-24T04:00:59;4.05;;;1.80;;
38591;SDS011;24356;48.460;11.450;2022-12-24T04:03:25;5.57;;;1.42;;
38591;SDS011;24356;48.460;11.450;2022-12-24T04:06:04;5.38;;;1.50;;
38591;SDS011;24356;48.460;11.450;2022-12-24T04:08:34;4.88;;;1.50;;
38591;SDS011;24356;48.460;11.450;2022-12-24T04:11:00;7.60;;;1.70;;
38591;SDS011;24356;48.460;11.450;2022-12-24T04:13:30;6.22;;;1.70;;
38591;SDS011;24356;48.460;11.450;2022-12-24T04:15:59;4.03;;;1.40;;
38591;SDS011;24356;48.460;11.450;2022-12-24T04:18:27;5.15;;;1.40;;
38591;SDS011;24356;48.460;11.450;2022-12-24T04:20:53;3.80;;;1.70;;
38591;SDS011;24356;48.460;11.450;2022-12-24T04:23:19;5.72;;;1.63;;
38591;SDS011;24356;48.460;11.450;2022-12-24T04:25:45;7.65;;;2.15;;
38591;SDS011;24356;48.460;11.450;2022-12-24T04:28:11;6.72;;;2.17;;
38591;SDS011;24356;48.460;11.450;2022-12-24T04:30:37;8.50;;;2.50;;
38591;SDS011;24356;48.460;11.450;2022-12-24T04:33:04;7.53;;;2.70;;
38591;SDS011;24356;48.460;11.450;2022-12-24T04:35:30;6.13;;;2.80;;
38591;SDS011;24356;48.460;11.450;2022-12-24T04:37:56;6.85;;;2.42;;
38591;SDS011;24356;48.460;11.450;2022-12-24T04:40:23;5.97;;;2.40;;
38591;SDS011;24356;48.460;11.450;2022-12-24T04:42:49;6.03;;;2.80;;
38591;SDS011;24356;48.460;11.450;2022-12-24T04:45:15;5.82;;;2.47;;
38591;SDS011;24356;48.460;11.450;2022-12-24T04:47:41;9.15;;;2.38;;
38591;SDS011;24356;48.460;11.450;2022-12-24T04:50:07;5.78;;;2.67;;
38591;SDS011;24356;48.460;11.450;2022-12-24T04:52:33;6.15;;;2.45;;
38591;SDS011;24356;48.460;11.450;2022-12-24T04:54:59;8.95;;;4.18;;
38591;SDS011;24356;48.460;11.450;2022-12-24T04:57:26;9.13;;;2.80;;
38591;SDS011;24356;48.460;11.450;2022-12-24T04:59:52;6.35;;;2.30;;
38591;SDS011;24356;48.460;11.450;2022-12-24T05:02:17;6.13;;;2.80;;
38591;SDS011;24356;48.460;11.450;2022-12-24T05:04:43;6.60;;;2.55;;
38591;SDS011;24356;48.460;11.450;2022-12-24T05:07:08;8.57;;;2.75;;
38591;SDS011;24356;48.460;11.450;2022-12-24T05:09:34;7.28;;;3.28;;
38591;SDS011;24356;48.460;11.450;2022-12-24T05:12:00;4.40;;;2.72;;
38591;SDS011;24356;48.460;11.450;2022-12-24T05:14:25;5.10;;;2.53;;
38591;SDS011;24356;48.460;11.450;2022-12-24T05:16:51;6.60;;;2.95;;
38591;SDS011;24356;48.460;11.450;2022-12-24T05:19:17;9.52;;;3.13;;
38591;SDS011;24356;48.460;11.450;2022-12-24T05:21:42;5.63;;;2.83;;
38591;SDS011;24356;48.460;11.450;2022-12-24T05:24:09;7.45;;;2.78;;
38591;SDS011;24356;48.460;11.450;2022-12-24T05:26:55;11.02;;;2.00;;
38591;SDS011;24356;48.460;11.450;2022-12-24T05:29:22;9.95;;;1.70;;
38591;SDS011;24356;48.460;11.450;2022-12-24T05:31:48;5.72;;;1.50;;
38591;SDS011;24356;48.460;11.450;2022-12-24T05:34:14;9.65;;;1.45;;
38591;SDS011;24356;48.460;11.450;2022-12-24T05:36:40;3.85;;;1.40;;
38591;SDS011;24356;48.460;11.450;2022-12-24T05:39:06;6.82;;;1.48;;
38591;SDS011;24356;48.460;11.450;2022-12-24T05:41:34;6.47;;;1.85;;
38591;SDS011;24356;48.460;11.450;2022-12-24T05:43:59;6.32;;;1.50;;
38591;SDS011;24356;48.460;11.450;2022-12-24T05:46:25;9.45;;;2.50;;
38591;SDS011;24356;48.460;11.450;2022-12-24T05:48:51;7.07;;;1.77;;
38591;SDS011;24356;48.460;11.450;2022-12-24T05:51:17;7.60;;;2.00;;
38591;SDS011;24356;48.460;11.450;2022-12-24T05:53:46;7.05;;;1.30;;
38591;SDS011;24356;48.460;11.450;2022-12-24T05:56:14;6.10;;;1.33;;
38591;SDS011;24356;48.460;11.450;2022-12-24T05:58:46;4.68;;;1.40;;
38591;SDS011;24356;48.460;11.450;2022-12-24T06:01:12;6.20;;;1.30;;
38591;SDS011;24356;48.460;11.450;2022-12-24T06:03:38;6.75;;;1.42;;
38591;SDS011;24356;48.460;11.450;2022-12-24T06:11:24;5.60;;;1.35;;
38591;SDS011;24356;48.460;11.450;2022-12-24T06:13:51;4.35;;;1.30;;
38591;SDS011;24356;48.460;11.450;2022-12-24T06:16:18;2.50;;;1.17;;
38591;SDS011;24356;48.460;11.450;2022-12-24T06:18:44;9.88;;;1.65;;
38591;SDS011;24356;48.460;11.450;2022-12-24T06:21:10;5.53;;;1.60;;
38591;SDS011;24356;48.460;11.450;2022-12-24T06:23:37;6.13;;;1.70;;
38591;SDS011;24356;48.460;11.450;2022-12-24T06:26:05;9.68;;;1.70;;
38591;SDS011;24356;48.460;11.450;2022-12-24T06:28:32;7.25;;;1.67;;
38591;SDS011;24356;48.460;11.450;2022-12-24T06:30:59;4.60;;;1.65;;
38591;SDS011;24356;48.460;11.450;2022-12-24T06:33:26;6.13;;;2.20;;
38591;SDS011;24356;48.460;11.450;2022-12-24T06:35:52;5.55;;;1.80;;
38591;SDS011;24356;48.460;11.450;2022-12-24T06:38:19;6.32;;;2.22;;
38591;SDS011;24356;48.460;11.450;2022-12-24T06:40:45;7.63;;;2.00;;
38591;SDS011;24356;48.460;11.450;2022-12-24T06:43:11;6.70;;;1.80;;
38591;SDS011;24356;48.460;11.450;2022-12-24T06:45:38;9.40;;;1.90;;
38591;SDS011;24356;48.460;11.450;2022-12-24T06:48:10;10.73;;;2.08;;
38591;SDS011;24356;48.460;11.450;2022-12-24T06:50:35;5.05;;;2.25;;
38591;SDS011;24356;48.460;11.450;2022-12-24T06:53:01;7.55;;;2.08;;
38591;SDS011;24356;48.460;11.450;2022-12-24T06:55:27;7.53;;;1.90;;
38591;SDS011;24356;48.460;11.450;2022-12-24T06:57:52;6.53;;;2.30;;
38591;SDS011;24356;48.460;11.450;2022-12-24T07:00:18;4.38;;;2.10;;
38591;SDS011;24356;48.460;11.450;2022-12-24T07:02:45;4.15;;;2.20;;
38591;SDS011;24356;48.460;11.450;2022-12-24T07:05:11;4.00;;;2.00;;
38591;SDS011;24356;48.460;11.450;2022-12-24T07:07:38;4.93;;;2.03;;
38591;SDS011;24356;48.460;11.450;2022-12-24T07:10:05;5.25;;;2.17;;
38591;SDS011;24356;48.460;11.450;2022-12-24T07:12:32;4.22;;;1.92;;
38591;SDS011;24356;48.460;11.450;2022-12-24T07:14:59;6.90;;;1.90;;
38591;SDS011;24356;48.460;11.450;2022-12-24T07:17:24;3.97;;;1.67;;
38591;SDS011;24356;48.460;11.450;2022-12-24T07:19:50;4.80;;;1.85;;
38591;SDS011;24356;48.460;11.450;2022-12-24T07:22:16;3.63;;;2.03;;
38591;SDS011;24356;48.460;11.450;2022-12-24T07:24:42;3.88;;;1.52;;
38591;SDS011;24356;48.460;11.450;2022-12-24T07:27:08;3.50;;;1.45;;
38591;SDS011;24356;48.460;11.450;2022-12-24T07:29:33;3.65;;;1.48;;
38591;SDS011;24356;48.460;11.450;2022-12-24T07:31:59;7.55;;;2.10;;
38591;SDS011;24356;48.460;11.450;2022-12-24T07:34:25;4.82;;;2.08;;
38591;SDS011;24356;48.460;11.450;2022-12-24T07:36:50;4.50;;;2.00;;
38591;SDS011;24356;48.460;11.450;2022-12-24T07:39:16;6.43;;;3.10;;
38591;SDS011;24356;48.460;11.450;2022-12-24T07:41:42;10.55;;;3.92;;
38591;SDS011;24356;48.460;11.450;2022-12-24T07:44:10;12.70;;;6.05;;
38591;SDS011;24356;48.460;11.450;2022-12-24T07:46:37;11.18;;;4.72;;
38591;SDS011;24356;48.460;11.450;2022-12-24T07:49:03;9.02;;;3.97;;
38591;SDS011;24356;48.460;11.450;2022-12-24T07:51:28;12.18;;;5.22;;
38591;SDS011;24356;48.460;11.450;2022-12-24T07:53:54;10.98;;;5.50;;
38591;SDS011;24356;48.460;11.450;2022-12-24T07:56:20;14.43;;;7.18;;
38591;SDS011;24356;48.460;11.450;2022-12-24T07:58:45;14.27;;;7.57;;
38591;SDS011;24356;48.460;11.450;2022-12-24T08:01:11;15.75;;;7.82;;
38591;SDS011;24356;48.460;11.450;2022-12-24T08:03:36;12.82;;;6.85;;
38591;SDS011;24356;48.460;11.450;2022-12-24T08:06:02;14.02;;;6.63;;
38591;SDS011;24356;48.460;11.450;2022-12-24T08:08:28;12.63;;;7.18;;
38591;SDS011;24356;48.460;11.450;2022-12-24T08:10:59;11.77;;;6.22;;
38591;SDS011;24356;48.460;11.450;2022-12-24T08:13:26;10.55;;;6.53;;
38591;SDS011;24356;48.460;11.450;2022-12-24T08:15:56;12.38;;;6.28;;
38591;SDS011;24356;48.460;11.450;2022-12-24T08:18:23;8.73;;;4.80;;
38591;SDS011;24356;48.460;11.450;2022-12-24T08:20:49;8.27;;;4.70;;
38591;SDS011;24356;48.460;11.450;2022-12-24T08:23:15;9.35;;;4.53;;
38591;SDS011;24356;48.460;11.450;2022-12-24T08:25:44;11.95;;;4.80;;
38591;SDS011;24356;48.460;11.450;2022-12-24T08:28:12;11.48;;;4.90;;
38591;SDS011;24356;48.460;11.450;2022-12-24T08:30:39;13.63;;;4.80;;
38591;SDS011;24356;48.460;11.450;2022-12-24T08:33:05;7.78;;;3.70;;
38591;SDS011;24356;48.460;11.450;2022-12-24T08:35:31;12.73;;;4.32;;
38591;SDS011;24356;48.460;11.450;2022-12-24T08:37:56;13.43;;;4.53;;
38591;SDS011;24356;48.460;11.450;2022-12-24T08:40:22;13.48;;;4.38;;
38591;SDS011;24356;48.460;11.450;2022-12-24T08:42:48;7.85;;;4.00;;
38591;SDS011;24356;48.460;11.450;2022-12-24T08:45:14;8.02;;;4.20;;
38591;SDS011;24356;48.460;11.450;2022-12-24T08:47:41;9.30;;;4.13;;
38591;SDS011;24356;48.460;11.450;2022-12-24T08:50:07;13.55;;;4.10;;
38591;SDS011;24356;48.460;11.450;2022-12-24T08:52:33;13.50;;;4.63;;
38591;SDS011;24356;48.460;11.450;2022-12-24T08:54:59;13.90;;;4.13;;
38591;SDS011;24356;48.460;11.450;2022-12-24T08:57:25;12.15;;;3.58;;
38591;SDS011;24356;48.460;11.450;2022-12-24T08:59:50;10.95;;;3.58;;
38591;SDS011;24356;48.460;11.450;2022-12-24T09:02:16;11.35;;;3.55;;
38591;SDS011;24356;48.460;11.450;2022-12-24T09:04:42;14.80;;;3.50;;
38591;SDS011;24356;48.460;11.450;2022-12-24T09:07:08;17.95;;;3.72;;
38591;SDS011;24356;48.460;11.450;2022-12-24T09:09:34;11.93;;;3.72;;
38591;SDS011;24356;48.460;11.450;2022-12-24T09:12:00;15.27;;;3.28;;
38591;SDS011;24356;48.460;11.450;2022-12-24T09:14:27;12.45;;;3.20;;
38591;SDS011;24356;48.460;11.450;2022-12-24T09:16:53;10.57;;;2.85;;
38591;SDS011;24356;48.460;11.450;2022-12-24T09:19:18;10.48;;;2.83;;
38591;SDS011;24356;48.460;11.450;2022-12-24T09:21:44;15.23;;;3.55;;
38591;SDS011;24356;48.460;11.450;2022-12-24T09:24:11;10.40;;;2.95;;
38591;SDS011;24356;48.460;11.450;2022-12-24T09:26:36;16.67;;;4.70;;
38591;SDS011;24356;48.460;11.450;2022-12-24T09:29:05;11.93;;;2.70;;
38591;SDS011;24356;48.460;11.450;2022-12-24T09:31:31;14.68;;;2.97;;
38591;SDS011;24356;48.460;11.450;2022-12-24T09:33:57;9.65;;;2.30;;
38591;SDS011;24356;48.460;11.450;2022-12-24T09:36:22;6.25;;;2.03;;
38591;SDS011;24356;48.460;11.450;2022-12-24T09:38:48;6.10;;;1.88;;
38591;SDS011;24356;48.460;11.450;2022-12-24T09:43:46;8.93;;;1.75;;
38591;SDS011;24356;48.460;11.450;2022-12-24T09:48:52;7.20;;;1.90;;
38591;SDS011;24356;48.460;11.450;2022-12-24T09:51:39;9.93;;;3.20;;
38591;SDS011;24356;48.460;11.450;2022-12-24T09:54:11;5.88;;;1.65;;
38591;SDS011;24356;48.460;11.450;2022-12-24T09:56:38;6.32;;;1.48;;
38591;SDS011;24356;48.460;11.450;2022-12-24T09:59:15;5.70;;;1.45;;
38591;SDS011;24356;48.460;11.450;2022-12-24T10:01:48;6.57;;;1.52;;
38591;SDS011;24356;48.460;11.450;2022-12-24T10:04:18;4.60;;;1.40;;
38591;SDS011;24356;48.460;11.450;2022-12-24T10:15:07;6.78;;;1.55;;
38591;SDS011;24356;48.460;11.450;2022-12-24T10:17:45;4.90;;;1.10;;
38591;SDS011;24356;48.460;11.450;2022-12-24T10:23:16;5.07;;;1.20;;
38591;SDS011;24356;48.460;11.450;2022-12-24T10:28:43;10.98;;;1.42;;
38591;SDS011;24356;48.460;11.450;2022-12-24T10:31:18;6.88;;;1.35;;
38591;SDS011;24356;48.460;11.450;2022-12-24T10:33:48;6.15;;;1.50;;
38591;SDS011;24356;48.460;11.450;2022-12-24T10:36:22;8.52;;;1.90;;
38591;SDS011;24356;48.460;11.450;2022-12-24T10:38:51;4.30;;;1.55;;
38591;SDS011;24356;48.460;11.450;2022-12-24T10:41:18;7.25;;;2.15;;
38591;SDS011;24356;48.460;11.450;2022-12-24T10:43:44;5.53;;;1.60;;
38591;SDS011;24356;48.460;11.450;2022-12-24T10:49:11;5.60;;;1.63;;
38591;SDS011;24356;48.460;11.450;2022-12-24T10:51:44;6.07;;;1.33;;
38591;SDS011;24356;48.460;11.450;2022-12-24T10:54:23;8.05;;;1.80;;
38591;SDS011;24356;48.460;11.450;2022-12-24T10:56:51;4.60;;;1.20;;
38591;SDS011;24356;48.460;11.450;2022-12-24T10:59:24;8.47;;;1.93;;
38591;SDS011;24356;48.460;11.450;2022-12-24T11:01:50;3.63;;;1.35;;
38591;SDS011;24356;48.460;11.450;2022-12-24T11:04:18;6.95;;;1.20;;
38591;SDS011;24356;48.460;11.450;2022-12-24T11:07:05;4.97;;;1.35;;
38591;SDS011;24356;48.460;11.450;2022-12-24T11:09:41;4.60;;;1.15;;
38591;SDS011;24356;48.460;11.450;2022-12-24T11:12:19;6.32;;;1.23;;
38591;SDS011;24356;48.460;11.450;2022-12-24T11:14:47;6.78;;;1.20;;
38591;SDS011;24356;48.460;11.450;2022-12-24T11:17:23;6.78;;;1.25;;
38591;SDS011;24356;48.460;11.450;2022-12-24T11:19:48;3.92;;;1.17;;
38591;SDS011;24356;48.460;11.450;2022-12-24T11:22:20;4.05;;;1.30;;
38591;SDS011;24356;48.460;11.450;2022-12-24T11:25:00;10.05;;;1.40;;
38591;SDS011;24356;48.460;11.450;2022-12-24T11:32:39;8.00;;;1.33;;
38591;SDS011;24356;48.460;11.450;2022-12-24T11:35:25;5.15;;;0.90;;
38591;SDS011;24356;48.460;11.450;2022-12-24T11:40:32;3.60;;;1.10;;
38591;SDS011;24356;48.460;11.450;2022-12-24T11:43:02;5.85;;;1.13;;
38591;SDS011;24356;48.460;11.450;2022-12-24T11:45:29;4.63;;;0.95;;
38591;SDS011;24356;48.460;11.450;2022-12-24T11:47:56;8.02;;;1.10;;
38591;SDS011;24356;48.460;11.450;2022-12-24T11:50:34;5.00;;;1.20;;
38591;SDS011;24356;48.460;11.450;2022-12-24T11:55:48;5.32;;;1.80;;
38591;SDS011;24356;48.460;11.450;2022-12-24T12:00:42;19.30;;;9.57;;
38591;SDS011;24356;48.460;11.450;2022-12-24T12:03:19;6.43;;;2.22;;
38591;SDS011;24356;48.460;11.450;2022-12-24T12:05:57;5.93;;;1.95;;
38591;SDS011;24356;48.460;11.450;2022-12-24T12:08:26;13.30;;;5.05;;
38591;SDS011;24356;48.460;11.450;2022-12-24T12:10:54;12.20;;;5.03;;
38591;SDS011;24356;48.460;11.450;2022-12-24T12:13:22;23.25;;;10.77;;
38591;SDS011;24356;48.460;11.450;2022-12-24T12:18:51;10.05;;;4.35;;
38591;SDS011;24356;48.460;11.450;2022-12-24T12:21:36;6.40;;;1.88;;
38591;SDS011;24356;48.460;11.450;2022-12-24T12:24:11;8.07;;;3.50;;
38591;SDS011;24356;48.460;11.450;2022-12-24T12:27:12;9.40;;;3.13;;
38591;SDS011;24356;48.460;11.450;2022-12-24T12:29:56;4.78;;;2.42;;
38591;SDS011;24356;48.460;11.450;2022-12-24T12:32:47;6.20;;;2.22;;
38591;SDS011;24356;48.460;11.450;2022-12-24T12:35:21;7.57;;;1.38;;
38591;SDS011;24356;48.460;11.450;2022-12-24T12:38:00;7.55;;;2.42;;
38591;SDS011;24356;48.460;11.450;2022-12-24T12:40:41;8.30;;;2.10;;
38591;SDS011;24356;48.460;11.450;2022-12-24T12:46:31;4.28;;;1.08;;
38591;SDS011;24356;48.460;11.450;2022-12-24T12:54:53;7.75;;;1.70;;
38591;SDS011;24356;48.460;11.450;2022-12-24T12:57:42;9.90;;;2.03;;
38591;SDS011;24356;48.460;11.450;2022-12-24T13:00:11;5.00;;;1.67;;
38591;SDS011;24356;48.460;11.450;2022-12-24T13:02:58;4.70;;;1.33;;
38591;SDS011;24356;48.460;11.450;2022-12-24T13:22:27;9.20;;;2.25;;
38591;SDS011;24356;48.460;11.450;2022-12-24T13:24:53;10.70;;;1.90;;
38591;SDS011;24356;48.460;11.450;2022-12-24T13:27:30;10.05;;;2.03;;
38591;SDS011;24356;48.460;11.450;2022-12-24T13:29:58;8.57;;;2.28;;
38591;SDS011;24356;48.460;11.450;2022-12-24T13:34:56;4.57;;;1.52;;
38591;SDS011;24356;48.460;11.450;2022-12-24T13:43:20;5.45;;;1.60;;
38591;SDS011;24356;48.460;11.450;2022-12-24T13:50:39;3.67;;;1.20;;
38591;SDS011;24356;48.460;11.450;2022-12-24T13:53:16;4.65;;;1.30;;
38591;SDS011;24356;48.460;11.450;2022-12-24T13:58:35;4.88;;;2.20;;
38591;SDS011;24356;48.460;11.450;2022-12-24T14:01:05;7.10;;;1.95;;
38591;SDS011;24356;48.460;11.450;2022-12-24T14:03:41;5.18;;;2.40;;
38591;SDS011;24356;48.460;11.450;2022-12-24T14:06:09;5.20;;;2.00;;
38591;SDS011;24356;48.460;11.450;2022-12-24T14:08:46;7.60;;;2.40;;
38591;SDS011;24356;48.460;11.450;2022-12-24T14:11:21;6.95;;;1.95;;
38591;SDS011;24356;48.460;11.450;2022-12-24T14:16:28;10.15;;;1.65;;
38591;SDS011;24356;48.460;11.450;2022-12-24T14:21:43;5.25;;;1.20;;
38591;SDS011;24356;48.460;11.450;2022-12-24T14:24:19;3.78;;;1.50;;
38591;SDS011;24356;48.460;11.450;2022-12-24T14:26:53;6.43;;;1.52;;
38591;SDS011;24356;48.460;11.450;2022-12-24T14:29:32;5.75;;;1.58;;
38591;SDS011;24356;48.460;11.450;2022-12-24T14:32:14;6.05;;;1.45;;
38591;SDS011;24356;48.460;11.450;2022-12-24T14:34:41;7.45;;;2.38;;
38591;SDS011;24356;48.460;11.450;2022-12-24T14:37:07;10.15;;;3.97;;
38591;SDS011;24356;48.460;11.450;2022-12-24T14:39:37;12.13;;;2.60;;
38591;SDS011;24356;48.460;11.450;2022-12-24T14:45:02;10.85;;;4.60;;
38591;SDS011;24356;48.460;11.450;2022-12-24T14:56:15;4.28;;;1.50;;
38591;SDS011;24356;48.460;11.450;2022-12-24T14:58:43;6.85;;;2.13;;
38591;SDS011;24356;48.460;11.450;2022-12-24T15:01:23;7.38;;;1.58;;
38591;SDS011;24356;48.460;11.450;2022-12-24T15:06:41;5.75;;;1.80;;
38591;SDS011;24356;48.460;11.450;2022-12-24T15:09:18;3.28;;;1.25;;
38591;SDS011;24356;48.460;11.450;2022-12-24T15:11:44;5.38;;;1.40;;
38591;SDS011;24356;48.460;11.450;2022-12-24T15:14:12;5.40;;;1.60;;
38591;SDS011;24356;48.460;11.450;2022-12-24T15:16:39;3.70;;;1.30;;
38591;SDS011;24356;48.460;11.450;2022-12-24T15:19:06;4.80;;;1.55;;
38591;SDS011;24356;48.460;11.450;2022-12-24T15:21:43;6.00;;;1.38;;
38591;SDS011;24356;48.460;11.450;2022-12-24T15:24:25;4.65;;;1.50;;
38591;SDS011;24356;48.460;11.450;2022-12-24T15:26:54;5.93;;;1.40;;
38591;SDS011;24356;48.460;11.450;2022-12-24T15:29:21;4.03;;;1.00;;
38591;SDS011;24356;48.460;11.450;2022-12-24T15:31:54;5.38;;;1.50;;
38591;SDS011;24356;48.460;11.450;2022-12-24T15:34:30;3.22;;;1.23;;
38591;SDS011;24356;48.460;11.450;2022-12-24T15:37:05;3.63;;;1.20;;
38591;SDS011;24356;48.460;11.450;2022-12-24T15:39:36;5.53;;;1.08;;
38591;SDS011;24356;48.460;11.450;2022-12-24T15:42:03;3.83;;;0.95;;
38591;SDS011;24356;48.460;11.450;2022-12-24T15:44:40;7.97;;;1.50;;
38591;SDS011;24356;48.460;11.450;2022-12-24T15:47:31;7.40;;;1.33;;
38591;SDS011;24356;48.460;11.450;2022-12-24T15:50:04;5.00;;;1.17;;
38591;SDS011;24356;48.460;11.450;2022-12-24T15:52:40;7.07;;;1.40;;
38591;SDS011;24356;48.460;11.450;2022-12-24T15:58:22;3.75;;;1.40;;
38591;SDS011;24356;48.460;11.450;2022-12-24T16:03:39;5.10;;;1.20;;
38591;SDS011;24356;48.460;11.450;2022-12-24T16:06:18;4.22;;;1.40;;
38591;SDS011;24356;48.460;11.450;2022-12-24T16:08:44;6.25;;;1.30;;
38591;SDS011;24356;48.460;11.450;2022-12-24T16:11:12;4.97;;;2.00;;
38591;SDS011;24356;48.460;11.450;2022-12-24T16:14:02;3.38;;;1.42;;
38591;SDS011;24356;48.460;11.450;2022-12-24T16:16:43;3.80;;;1.70;;
38591;SDS011;24356;48.460;11.450;2022-12-24T16:19:17;5.55;;;1.15;;
38591;SDS011;24356;48.460;11.450;2022-12-24T16:21:49;3.60;;;1.27;;
38591;SDS011;24356;48.460;11.450;2022-12-24T16:24:20;5.90;;;1.30;;
38591;SDS011;24356;48.460;11.450;2022-12-24T16:26:48;6.18;;;1.40;;
38591;SDS011;24356;48.460;11.450;2022-12-24T16:29:14;4.85;;;1.45;;
38591;SDS011;24356;48.460;11.450;2022-12-24T16:31:58;6.90;;;1.38;;
38591;SDS011;24356;48.460;11.450;2022-12-24T16:34:25;5.85;;;2.08;;
38591;SDS011;24356;48.460;11.450;2022-12-24T16:36:54;2.78;;;1.50;;
38591;SDS011;24356;48.460;11.450;2022-12-24T16:39:21;4.03;;;1.38;;
38591;SDS011;24356;48.460;11.450;2022-12-24T16:41:50;8.23;;;1.70;;
38591;SDS011;24356;48.460;11.450;2022-12-24T16:44:42;8.18;;;1.67;;
38591;SDS011;24356;48.460;11.450;2022-12-24T16:47:17;4.70;;;2.00;;
38591;SDS011;24356;48.460;11.450;2022-12-24T16:49:46;14.80;;;7.00;;
38591;SDS011;24356;48.460;11.450;2022-12-24T16:52:18;11.63;;;5.57;;
38591;SDS011;24356;48.460;11.450;2022-12-24T16:54:46;20.98;;;10.32;;
38591;SDS011;24356;48.460;11.450;2022-12-24T16:57:12;21.35;;;11.02;;
38591;SDS011;24356;48.460;11.450;2022-12-24T16:59:38;18.23;;;9.27;;
38591;SDS011;24356;48.460;11.450;2022-12-24T17:02:05;9.70;;;3.97;;
38591;SDS011;24356;48.460;11.450;2022-12-24T17:04:31;4.97;;;1.88;;